createdAt,value
2019-01-13T00:00:11.756Z,1.60
2019-01-13T00:05:30.338Z,1.50
2019-01-13T00:10:45.099Z,1.50
2019-01-13T00:15:59.671Z,1.50
2019-01-13T00:21:14.165Z,1.50
2019-01-13T00:26:28.694Z,1.60
2019-01-13T00:31:43.168Z,1.60
2019-01-13T00:37:00.849Z,1.60
2019-01-13T00:42:20.978Z,1.60
2019-01-13T00:47:35.547Z,1.70
2019-01-13T00:52:53.042Z,1.70
2019-01-13T00:58:07.565Z,1.70
2019-01-13T01:03:22.069Z,1.70
2019-01-13T01:08:36.593Z,1.80
2019-01-13T01:13:51.115Z,1.80
2019-01-13T01:19:06.054Z,1.80
2019-01-13T01:24:20.396Z,1.90
2019-01-13T01:29:35.036Z,1.90
2019-01-13T01:34:54.639Z,1.90
2019-01-13T01:40:13.030Z,1.90
2019-01-13T01:45:30.670Z,2.00
2019-01-13T01:50:45.421Z,2.00
2019-01-13T01:55:59.820Z,2.00
2019-01-13T02:01:15.821Z,2.00
2019-01-13T02:06:30.577Z,2.00
2019-01-13T02:11:44.890Z,2.10
2019-01-13T02:16:59.470Z,2.10
2019-01-13T02:22:14.140Z,2.10
2019-01-13T02:27:29.354Z,2.10
2019-01-13T02:32:45.288Z,2.10
2019-01-13T02:38:02.190Z,2.10
2019-01-13T02:43:16.689Z,2.10
2019-01-13T02:48:31.352Z,2.20
2019-01-13T02:53:45.620Z,2.20
2019-01-13T02:59:00.321Z,2.20
2019-01-13T03:04:15.393Z,2.20
2019-01-13T03:09:32.061Z,2.20
2019-01-13T03:14:45.890Z,2.20
2019-01-13T03:20:00.422Z,2.20
2019-01-13T03:25:16.249Z,2.20
2019-01-13T03:30:30.940Z,2.30
2019-01-13T03:35:48.718Z,2.30
2019-01-13T03:41:03.436Z,2.30
2019-01-13T03:46:17.776Z,2.40
2019-01-13T03:51:32.333Z,2.40
2019-01-13T03:56:46.825Z,2.40
2019-01-13T04:02:01.522Z,2.40
2019-01-13T04:07:16.078Z,2.40
2019-01-13T04:12:36.670Z,2.40
2019-01-13T04:17:51.654Z,2.40
2019-01-13T04:23:06.267Z,2.50
2019-01-13T04:28:22.185Z,2.40
2019-01-13T04:33:36.880Z,2.40
2019-01-13T04:38:51.436Z,2.40
2019-01-13T04:44:06.151Z,2.40
2019-01-13T04:49:23.598Z,2.40
2019-01-13T04:54:38.038Z,2.40
2019-01-13T04:59:52.548Z,2.50
2019-01-13T05:05:07.621Z,2.50
2019-01-13T05:10:22.417Z,2.50
2019-01-13T05:15:36.998Z,2.50
2019-01-13T05:20:51.885Z,2.50
2019-01-13T05:26:06.654Z,2.50
2019-01-13T05:31:22.107Z,2.50
2019-01-13T05:36:36.348Z,2.60
2019-01-13T05:41:50.679Z,2.60
2019-01-13T05:47:07.566Z,2.60
2019-01-13T05:52:22.220Z,2.70
2019-01-13T05:57:37.198Z,2.70
2019-01-13T06:02:53.911Z,2.70
2019-01-13T06:08:10.701Z,2.70
2019-01-13T06:13:25.282Z,2.70
2019-01-13T06:18:42.092Z,2.70
2019-01-13T06:23:56.450Z,2.70
2019-01-13T06:29:13.047Z,2.70
2019-01-13T06:34:27.539Z,2.70
2019-01-13T06:39:41.880Z,2.70
2019-01-13T06:44:56.198Z,2.70
2019-01-13T06:50:12.360Z,2.80
2019-01-13T06:55:26.816Z,2.80
2019-01-13T07:00:42.453Z,2.80
2019-01-13T07:05:57.169Z,2.80
2019-01-13T07:11:11.983Z,2.90
2019-01-13T07:16:31.259Z,2.90
2019-01-13T07:21:45.563Z,2.90
2019-01-13T07:27:00.341Z,2.90
2019-01-13T07:32:19.231Z,3.00
2019-01-13T07:37:33.755Z,3.00
2019-01-13T07:42:48.626Z,3.10
2019-01-13T07:48:03.367Z,3.10
2019-01-13T07:53:19.882Z,3.10
2019-01-13T07:58:34.831Z,3.20
2019-01-13T08:03:49.108Z,3.20
2019-01-13T08:09:04.314Z,3.20
2019-01-13T08:14:19.018Z,3.20
2019-01-13T08:19:33.399Z,3.20
2019-01-13T08:24:48.348Z,3.20
2019-01-13T08:30:02.704Z,3.20
2019-01-13T08:35:18.689Z,3.20
2019-01-13T08:40:34.808Z,3.20
2019-01-13T08:45:50.355Z,3.20
2019-01-13T08:51:05.189Z,3.20
2019-01-13T08:56:19.887Z,3.20
2019-01-13T09:01:34.548Z,3.30
2019-01-13T09:06:49.034Z,3.30
2019-01-13T09:12:03.621Z,3.30
2019-01-13T09:17:18.725Z,3.40
2019-01-13T09:22:41.265Z,3.40
2019-01-13T09:27:57.179Z,3.40
2019-01-13T09:33:13.813Z,3.40
2019-01-13T09:38:33.822Z,3.50
2019-01-13T09:43:50.279Z,3.50
2019-01-13T09:49:05.332Z,3.50
2019-01-13T09:54:22.030Z,3.50
2019-01-13T09:59:38.688Z,3.50
2019-01-13T10:04:53.338Z,3.50
2019-01-13T10:10:08.966Z,3.50
2019-01-13T10:15:27.241Z,3.50
2019-01-13T10:20:44.487Z,3.50
2019-01-13T10:25:59.185Z,3.50
2019-01-13T10:31:16.193Z,3.50
2019-01-13T10:36:30.922Z,3.50
2019-01-13T10:41:47.357Z,3.50
2019-01-13T10:47:01.882Z,3.50
2019-01-13T10:52:16.790Z,3.40
2019-01-13T10:57:32.954Z,3.40
2019-01-13T11:02:51.000Z,3.30
2019-01-13T11:08:17.512Z,3.30
2019-01-13T11:13:38.848Z,3.20
2019-01-13T11:18:54.073Z,3.20
2019-01-13T11:24:12.205Z,3.20
2019-01-13T11:29:32.648Z,3.20
2019-01-13T11:34:46.130Z,3.20
2019-01-13T11:40:04.156Z,3.20
2019-01-13T11:45:18.916Z,3.20
2019-01-13T11:50:33.553Z,3.20
2019-01-13T11:55:48.397Z,3.20
2019-01-13T12:01:02.775Z,3.30
2019-01-13T12:06:17.178Z,3.30
2019-01-13T12:11:31.924Z,3.30
2019-01-13T12:16:46.913Z,3.30
2019-01-13T12:22:01.355Z,3.40
2019-01-13T12:27:18.283Z,3.40
2019-01-13T12:32:33.117Z,3.40
2019-01-13T12:37:49.116Z,3.50
2019-01-13T12:43:07.039Z,3.50
2019-01-13T12:48:49.588Z,3.50
2019-01-13T12:54:49.484Z,3.50
2019-01-13T13:06:16.391Z,3.60
2019-01-13T13:12:04.314Z,3.60
2019-01-13T13:17:58.131Z,3.70
2019-01-13T13:23:37.179Z,3.70
2019-01-13T13:29:09.146Z,3.70
2019-01-13T13:34:47.109Z,3.70
2019-01-13T13:40:43.312Z,3.70
2019-01-13T13:46:18.641Z,3.70
2019-01-13T13:51:52.010Z,3.80
2019-01-13T13:57:36.417Z,3.90
2019-01-13T14:03:45.529Z,4.00
2019-01-13T14:09:27.881Z,4.00
2019-01-13T14:15:04.699Z,4.10
2019-01-13T14:20:54.328Z,4.20
2019-01-13T14:26:51.867Z,4.30
2019-01-13T14:32:15.878Z,4.40
2019-01-13T14:37:35.095Z,4.50
2019-01-13T14:42:50.285Z,4.50
2019-01-13T14:48:05.080Z,4.60
2019-01-13T14:53:27.851Z,4.70
2019-01-13T14:58:45.725Z,4.70
2019-01-13T15:04:00.612Z,4.80
2019-01-13T15:09:17.851Z,4.90
2019-01-13T15:14:32.365Z,4.90
2019-01-13T15:19:46.893Z,5.00
2019-01-13T15:25:02.133Z,5.10
2019-01-13T15:30:20.179Z,5.10
2019-01-13T15:35:36.620Z,5.20
2019-01-13T15:40:50.930Z,5.20
2019-01-13T15:46:05.633Z,5.30
2019-01-13T15:51:20.348Z,5.30
2019-01-13T15:56:34.987Z,5.40
2019-01-13T16:01:51.613Z,5.40
2019-01-13T16:07:06.253Z,5.40
2019-01-13T16:12:20.855Z,5.40
2019-01-13T16:17:41.153Z,5.50
2019-01-13T16:22:58.387Z,5.50
2019-01-13T16:28:13.144Z,5.50
2019-01-13T16:33:27.652Z,5.50
2019-01-13T16:38:41.936Z,5.60
2019-01-13T16:43:57.127Z,5.60
2019-01-13T16:49:11.569Z,5.60
2019-01-13T16:54:27.723Z,5.60
2019-01-13T16:59:43.723Z,5.60
2019-01-13T17:04:58.687Z,5.70
2019-01-13T17:10:15.879Z,5.70
2019-01-13T17:15:34.909Z,5.70
2019-01-13T17:20:53.024Z,5.80
2019-01-13T17:26:08.060Z,5.80
2019-01-13T17:31:22.435Z,5.80
2019-01-13T17:36:37.010Z,5.90
2019-01-13T17:41:53.286Z,5.90
2019-01-13T17:47:09.643Z,5.90
2019-01-13T17:52:30.391Z,6.00
2019-01-13T17:57:46.428Z,6.00
2019-01-13T18:03:01.497Z,6.00
2019-01-13T18:08:16.097Z,6.00
2019-01-13T18:13:31.004Z,6.00
2019-01-13T18:18:46.041Z,6.00
2019-01-13T18:24:00.482Z,6.00
2019-01-13T18:29:15.532Z,6.00
2019-01-13T18:34:29.924Z,6.00
2019-01-13T18:39:44.534Z,6.00
2019-01-13T18:44:59.022Z,6.00
2019-01-13T18:50:16.279Z,6.00
2019-01-13T19:06:21.283Z,6.00
2019-01-13T19:12:02.584Z,6.00
2019-01-13T19:17:18.831Z,6.00
2019-01-13T19:22:34.564Z,6.00
2019-01-13T19:27:49.526Z,6.00
2019-01-13T19:33:07.539Z,6.10
2019-01-13T19:38:22.729Z,6.10
2019-01-13T19:43:38.137Z,6.10
2019-01-13T19:48:53.135Z,6.10
2019-01-13T19:54:54.588Z,6.20
2019-01-13T20:00:22.470Z,6.20
2019-01-13T20:05:37.498Z,6.20
2019-01-13T20:10:52.855Z,6.20
2019-01-13T20:16:09.817Z,6.10
2019-01-13T20:21:25.394Z,6.10
2019-01-13T20:26:42.085Z,6.10
2019-01-13T20:31:57.435Z,6.10
2019-01-13T20:37:17.817Z,6.10
2019-01-13T20:42:36.353Z,6.10
2019-01-13T20:47:51.742Z,6.20
2019-01-13T20:53:10.370Z,6.20
2019-01-13T20:58:25.388Z,6.20
2019-01-13T21:03:40.120Z,6.20
2019-01-13T21:08:54.939Z,6.30
2019-01-13T21:14:09.746Z,6.30
2019-01-13T21:19:24.807Z,6.40
2019-01-13T21:24:39.970Z,6.20
2019-01-13T21:30:01.183Z,6.10
2019-01-13T21:35:15.752Z,6.10
2019-01-13T21:40:30.644Z,6.20
2019-01-13T21:45:45.541Z,6.30
2019-01-13T21:51:03.651Z,6.30
2019-01-13T21:56:18.199Z,6.20
2019-01-13T22:01:35.603Z,6.20
2019-01-13T22:06:50.834Z,6.20
2019-01-13T22:12:05.693Z,6.30
2019-01-13T22:17:20.088Z,6.30
2019-01-13T22:22:34.857Z,6.40
2019-01-13T22:27:49.950Z,6.50
2019-01-13T22:33:04.299Z,6.60
2019-01-13T22:38:19.327Z,6.70
2019-01-13T22:43:34.192Z,6.70
2019-01-13T22:48:48.538Z,6.80
2019-01-13T22:54:03.452Z,6.80
2019-01-13T22:59:17.793Z,6.80
2019-01-13T23:04:32.660Z,6.80
2019-01-13T23:09:47.002Z,6.70
2019-01-13T23:15:06.042Z,6.60
2019-01-13T23:20:20.619Z,6.60
2019-01-13T23:25:35.247Z,6.60
2019-01-13T23:30:50.132Z,6.20
2019-01-13T23:36:04.647Z,5.90
2019-01-13T23:41:20.833Z,5.70
2019-01-13T23:46:35.931Z,5.70
2019-01-13T23:51:50.594Z,5.70
2019-01-13T23:57:05.386Z,5.60
